Time;durP1;ratioP1;P1;durP2;ratioP2;P2;SDS_P1;SDS_P2;PMS_P1;PMS_P2;Temp;Humidity;BMP_temperature;BMP_pressure;BME280_temperature;BME280_humidity;BME280_pressure;Samples;Min_cycle;Max_cycle;Signal;HPM_P1;HPM_P2
2023/05/19 00:01:29;;;;;;;4.07;2.60;;;11.80;83.60;;;;;;5094707;28;20543;-68
2023/05/19 00:04:01;;;;;;;3.70;2.20;;;11.80;83.90;;;;;;5095110;28;20475;-68
2023/05/19 00:06:30;;;;;;;3.50;2.80;;;11.70;84.10;;;;;;5095558;28;20492;-68
2023/05/19 00:09:00;;;;;;;4.63;2.20;;;11.70;84.80;;;;;;5093905;28;20435;-68
2023/05/19 00:11:27;;;;;;;4.60;2.77;;;11.70;85.00;;;;;;5095821;28;20495;-68
2023/05/19 00:13:56;;;;;;;8.30;3.13;;;11.70;85.10;;;;;;5095372;28;20481;-68
2023/05/19 00:16:24;;;;;;;3.97;2.70;;;11.70;85.40;;;;;;5095461;28;20467;-68
2023/05/19 00:18:52;;;;;;;4.35;2.42;;;11.70;85.70;;;;;;5095225;28;20508;-68
2023/05/19 00:21:19;;;;;;;3.60;2.60;;;11.70;85.70;;;;;;5095401;28;20250;-68
2023/05/19 00:23:47;;;;;;;4.60;2.80;;;11.70;85.60;;;;;;5094669;28;20487;-68
2023/05/19 00:26:15;;;;;;;3.30;2.60;;;11.70;85.60;;;;;;5095467;28;20431;-68
2023/05/19 00:28:42;;;;;;;4.43;2.70;;;11.60;85.50;;;;;;5094761;28;20193;-68
2023/05/19 00:31:09;;;;;;;8.07;3.25;;;11.60;85.60;;;;;;5095225;28;20469;-68
2023/05/19 00:33:36;;;;;;;4.95;2.25;;;11.60;85.60;;;;;;5094412;28;20181;-68
2023/05/19 00:36:05;;;;;;;4.55;2.53;;;11.60;85.60;;;;;;5095053;28;20193;-68
2023/05/19 00:38:33;;;;;;;8.20;2.47;;;11.60;85.60;;;;;;5094317;28;20197;-68
2023/05/19 00:41:03;;;;;;;4.88;3.13;;;11.60;85.80;;;;;;5094940;28;20481;-68
2023/05/19 00:43:30;;;;;;;5.97;3.60;;;11.50;85.80;;;;;;5094188;28;20657;-68
2023/05/19 00:45:57;;;;;;;5.90;3.17;;;11.50;86.00;;;;;;5094575;28;20439;-68
2023/05/19 00:48:25;;;;;;;5.33;3.27;;;11.50;86.00;;;;;;5094341;28;20182;-68
2023/05/19 00:50:54;;;;;;;5.50;3.85;;;11.50;86.20;;;;;;5094870;28;20443;-68
2023/05/19 00:53:23;;;;;;;4.97;3.03;;;11.50;86.10;;;;;;5093953;28;20215;-68
2023/05/19 00:55:50;;;;;;;4.55;3.55;;;11.40;86.20;;;;;;5093650;28;20793;-68
2023/05/19 00:58:19;;;;;;;4.97;3.60;;;11.50;86.50;;;;;;5094138;28;20284;-68
2023/05/19 01:00:47;;;;;;;6.35;3.85;;;11.40;86.60;;;;;;5094601;28;20427;-68
2023/05/19 01:03:19;;;;;;;6.55;4.18;;;11.40;86.70;;;;;;5093984;28;20210;-68
2023/05/19 01:05:46;;;;;;;5.90;4.13;;;11.40;86.50;;;;;;5094515;28;20189;-68
2023/05/19 01:08:13;;;;;;;5.05;3.72;;;11.30;86.60;;;;;;5093902;28;20268;-68
2023/05/19 01:10:40;;;;;;;4.28;3.70;;;11.30;86.60;;;;;;5094052;28;20196;-68
2023/05/19 01:13:08;;;;;;;6.35;4.18;;;11.30;86.90;;;;;;5094265;28;20193;-68
2023/05/19 01:16:00;;;;;;;8.63;4.65;;;11.30;87.00;;;;;;5093943;28;20228;-69
2023/05/19 01:18:38;;;;;;;8.88;3.67;;;11.30;86.90;;;;;;5094121;28;20475;-68
2023/05/19 01:21:35;;;;;;;7.03;4.15;;;11.30;87.60;;;;;;5093681;28;20185;-68
2023/05/19 01:24:13;;;;;;;5.80;3.35;;;11.20;87.80;;;;;;5094295;28;20223;-67
2023/05/19 01:27:15;;;;;;;9.18;4.45;;;11.20;87.70;;;;;;5073652;28;20261;-67
2023/05/19 01:29:59;;;;;;;8.47;3.83;;;11.20;87.80;;;;;;5077601;28;20220;-68
2023/05/19 01:32:30;;;;;;;6.40;4.63;;;11.20;87.70;;;;;;5093708;28;20438;-68
2023/05/19 01:34:58;;;;;;;6.87;4.27;;;11.20;87.50;;;;;;5093375;28;20863;-67
2023/05/19 01:37:27;;;;;;;6.60;4.47;;;11.20;87.10;;;;;;5093705;28;20431;-67
2023/05/19 01:39:55;;;;;;;9.23;4.73;;;11.10;87.40;;;;;;5093445;28;20189;-68
2023/05/19 01:42:23;;;;;;;5.20;4.30;;;11.00;87.60;;;;;;5093600;28;20926;-68
2023/05/19 01:44:50;;;;;;;6.88;5.00;;;11.00;88.10;;;;;;5092964;28;20209;-68
2023/05/19 01:47:18;;;;;;;8.68;4.68;;;11.00;88.40;;;;;;5093375;28;20193;-67
2023/05/19 01:49:48;;;;;;;11.57;4.28;;;10.90;88.50;;;;;;5091701;28;20221;-68
2023/05/19 01:52:15;;;;;;;8.63;4.30;;;11.00;88.60;;;;;;5093407;28;20185;-67
2023/05/19 01:54:42;;;;;;;8.38;5.63;;;11.00;88.30;;;;;;5093065;28;20243;-68
2023/05/19 01:57:20;;;;;;;7.32;5.15;;;10.90;88.30;;;;;;5092862;28;20189;-67
2023/05/19 01:59:57;;;;;;;11.65;5.18;;;10.90;88.60;;;;;;5092910;28;20639;-67
2023/05/19 02:02:38;;;;;;;11.38;5.47;;;10.90;88.80;;;;;;5093471;28;20600;-67
2023/05/19 02:05:27;;;;;;;8.63;4.82;;;10.90;89.00;;;;;;5092696;28;20208;-67
2023/05/19 02:08:01;;;;;;;9.93;4.30;;;10.90;88.90;;;;;;5093257;28;20197;-67
2023/05/19 02:10:36;;;;;;;11.07;4.60;;;10.90;88.60;;;;;;5073103;28;20190;-67
2023/05/19 02:13:07;;;;;;;10.10;5.78;;;10.80;88.70;;;;;;5072838;28;20193;-68
2023/05/19 02:15:38;;;;;;;8.52;5.00;;;10.80;88.80;;;;;;5071617;28;20561;-68
2023/05/19 02:18:10;;;;;;;7.57;5.82;;;10.80;89.10;;;;;;5072748;28;20185;-68
2023/05/19 02:20:39;;;;;;;9.32;5.53;;;10.80;89.10;;;;;;5072944;28;20193;-68
2023/05/19 02:23:06;;;;;;;9.75;5.05;;;10.70;89.10;;;;;;5072624;28;20331;-68
2023/05/19 02:25:33;;;;;;;7.63;5.07;;;10.70;89.60;;;;;;5092478;28;20211;-67
2023/05/19 02:28:01;;;;;;;9.00;5.45;;;10.70;89.70;;;;;;5092859;28;20250;-67
2023/05/19 02:30:27;;;;;;;9.35;5.30;;;10.60;90.00;;;;;;5091919;28;20185;-67
2023/05/19 02:32:54;;;;;;;8.30;4.88;;;10.50;89.90;;;;;;5092865;28;20230;-67
2023/05/19 02:35:22;;;;;;;12.32;5.28;;;10.50;90.00;;;;;;5092383;28;20185;-67
2023/05/19 02:37:54;;;;;;;10.65;5.65;;;10.40;89.80;;;;;;5092572;28;20258;-68
2023/05/19 02:40:22;;;;;;;9.80;4.45;;;10.40;90.10;;;;;;5092640;28;20193;-67
2023/05/19 02:42:49;;;;;;;10.80;5.72;;;10.30;90.20;;;;;;5092717;28;20695;-67
2023/05/19 02:45:16;;;;;;;9.20;5.05;;;10.30;90.30;;;;;;5092257;28;20717;-68
2023/05/19 02:47:43;;;;;;;9.10;5.35;;;10.20;90.30;;;;;;5092144;28;20188;-68
2023/05/19 02:50:10;;;;;;;8.70;4.50;;;10.20;90.50;;;;;;5092293;28;20189;-67
2023/05/19 02:52:37;;;;;;;7.85;5.85;;;10.10;90.70;;;;;;5092578;28;20240;-67
2023/05/19 02:55:07;;;;;;;5.68;4.43;;;10.10;90.90;;;;;;5092229;28;20189;-68
2023/05/19 02:57:35;;;;;;;9.23;6.00;;;10.00;91.00;;;;;;5092662;28;20196;-68
2023/05/19 03:00:04;;;;;;;6.03;4.47;;;10.00;91.10;;;;;;5092279;28;20547;-67
2023/05/19 03:02:32;;;;;;;6.95;5.30;;;10.00;91.20;;;;;;5092471;28;20196;-67
2023/05/19 03:05:00;;;;;;;9.70;4.95;;;10.00;91.30;;;;;;5092078;28;20224;-67
2023/05/19 03:07:27;;;;;;;7.97;4.90;;;10.10;91.40;;;;;;5092534;28;20193;-67
2023/05/19 03:09:55;;;;;;;7.60;4.95;;;10.10;91.50;;;;;;5092105;28;20242;-67
2023/05/19 03:12:23;;;;;;;14.25;5.55;;;10.10;91.60;;;;;;5092471;28;20193;-67
2023/05/19 03:14:51;;;;;;;10.82;5.47;;;10.20;91.60;;;;;;5091953;28;20193;-67
2023/05/19 03:17:18;;;;;;;10.75;6.00;;;10.20;91.60;;;;;;5092737;28;20193;-67
2023/05/19 03:19:45;;;;;;;12.98;4.53;;;10.30;91.60;;;;;;5095504;28;20185;-67
2023/05/19 03:22:12;;;;;;;12.15;4.60;;;10.30;91.50;;;;;;5096876;28;20211;-67
2023/05/19 03:24:39;;;;;;;8.45;4.28;;;10.30;91.50;;;;;;5095844;28;20217;-68
2023/05/19 03:27:07;;;;;;;7.22;5.45;;;10.30;91.60;;;;;;5096696;28;20192;-67
2023/05/19 03:29:35;;;;;;;7.60;4.45;;;10.40;91.70;;;;;;5095532;28;20189;-67
2023/05/19 03:32:02;;;;;;;7.15;4.32;;;10.40;91.60;;;;;;5096024;28;20185;-67
2023/05/19 03:34:31;;;;;;;10.32;6.10;;;10.40;91.50;;;;;;5095935;28;20755;-67
2023/05/19 03:36:58;;;;;;;7.03;4.53;;;10.40;91.60;;;;;;5095755;28;20189;-67
2023/05/19 03:39:25;;;;;;;9.10;5.78;;;10.40;91.90;;;;;;5096037;28;20193;-67
2023/05/19 03:41:52;;;;;;;7.90;4.68;;;10.40;91.90;;;;;;5095605;28;20181;-67
2023/05/19 03:44:19;;;;;;;10.65;5.82;;;10.40;92.10;;;;;;5095435;28;20691;-68
2023/05/19 03:46:48;;;;;;;12.70;5.85;;;10.40;92.10;;;;;;5095817;28;20193;-68
2023/05/19 03:49:15;;;;;;;6.10;5.15;;;10.30;92.10;;;;;;5095851;28;20193;-68
2023/05/19 03:51:43;;;;;;;8.30;5.40;;;10.30;92.30;;;;;;5095511;28;20189;-68
2023/05/19 03:54:10;;;;;;;9.98;5.65;;;10.40;92.50;;;;;;5095570;28;20242;-68
2023/05/19 03:56:39;;;;;;;7.05;4.95;;;10.40;92.60;;;;;;5095769;28;20555;-68
2023/05/19 03:59:07;;;;;;;7.32;5.10;;;10.40;92.70;;;;;;5095250;28;20193;-68
2023/05/19 04:01:34;;;;;;;9.98;5.38;;;10.40;92.70;;;;;;5095079;28;21017;-68
2023/05/19 04:04:02;;;;;;;7.55;4.78;;;10.40;93.00;;;;;;5094869;28;20606;-68
2023/05/19 04:06:29;;;;;;;7.88;5.65;;;10.50;93.00;;;;;;5095509;28;20251;-68
2023/05/19 04:08:56;;;;;;;6.45;4.82;;;10.50;93.00;;;;;;5095066;28;20192;-68
2023/05/19 04:11:23;;;;;;;8.43;5.03;;;10.60;93.00;;;;;;5095405;28;20189;-68
2023/05/19 04:13:50;;;;;;;11.15;6.00;;;10.60;92.90;;;;;;5094853;28;20578;-68
2023/05/19 04:16:18;;;;;;;8.40;5.18;;;10.70;92.80;;;;;;5095275;28;20274;-68
2023/05/19 04:18:45;;;;;;;12.23;5.63;;;10.70;92.70;;;;;;5094536;28;20227;-68
2023/05/19 04:21:13;;;;;;;11.98;5.10;;;10.80;92.50;;;;;;5095295;28;20552;-68
2023/05/19 04:23:40;;;;;;;8.68;5.38;;;10.80;92.40;;;;;;5095157;28;20306;-68
2023/05/19 04:26:07;;;;;;;10.38;6.80;;;10.80;92.40;;;;;;5095236;28;20209;-68
2023/05/19 04:28:37;;;;;;;7.93;5.50;;;10.80;92.40;;;;;;5094571;28;20189;-68
2023/05/19 04:31:09;;;;;;;12.00;5.35;;;10.90;92.30;;;;;;5093484;28;20214;-68
2023/05/19 04:33:36;;;;;;;8.88;5.70;;;11.00;92.30;;;;;;5094659;28;20193;-68
2023/05/19 04:36:07;;;;;;;11.20;6.88;;;11.00;92.10;;;;;;5095111;28;20200;-68
2023/05/19 04:38:36;;;;;;;8.60;5.35;;;11.10;91.90;;;;;;5094517;28;20197;-69
2023/05/19 04:41:09;;;;;;;11.32;5.07;;;11.10;92.00;;;;;;5095020;28;20198;-68
2023/05/19 04:43:40;;;;;;;14.63;6.07;;;11.20;91.80;;;;;;5094605;28;20195;-68
2023/05/19 04:46:08;;;;;;;8.55;5.30;;;11.30;91.30;;;;;;5094742;28;20256;-68
2023/05/19 04:48:36;;;;;;;10.57;5.38;;;11.40;91.30;;;;;;5094485;28;20185;-69
2023/05/19 04:51:03;;;;;;;9.45;6.15;;;11.40;91.10;;;;;;5094617;28;20220;-68
2023/05/19 04:53:30;;;;;;;14.50;5.85;;;11.40;91.00;;;;;;5094052;28;20199;-69
2023/05/19 04:55:59;;;;;;;10.93;5.65;;;11.40;90.80;;;;;;5094466;28;20258;-68
2023/05/19 04:58:26;;;;;;;9.03;5.30;;;11.50;90.80;;;;;;5094744;28;20580;-68
2023/05/19 05:00:55;;;;;;;8.33;5.53;;;11.50;90.80;;;;;;5094266;28;20522;-68
2023/05/19 05:03:23;;;;;;;15.73;5.60;;;11.50;90.80;;;;;;5094670;28;20443;-68
2023/05/19 05:05:50;;;;;;;8.23;5.20;;;11.60;90.50;;;;;;5093707;28;20479;-68
2023/05/19 05:08:21;;;;;;;6.97;4.85;;;11.60;90.40;;;;;;5094295;28;20488;-68
2023/05/19 05:10:53;;;;;;;8.20;5.60;;;11.60;90.50;;;;;;5093952;28;20224;-68
2023/05/19 05:13:24;;;;;;;7.95;4.95;;;11.60;90.70;;;;;;5093476;28;20185;-68
2023/05/19 05:15:52;;;;;;;10.88;7.05;;;11.70;90.80;;;;;;5093564;28;20217;-68
2023/05/19 05:18:20;;;;;;;9.70;6.13;;;11.70;90.90;;;;;;5094192;28;20254;-68
2023/05/19 05:20:48;;;;;;;13.32;5.10;;;11.80;90.80;;;;;;5093666;28;20520;-68
2023/05/19 05:23:15;;;;;;;7.72;5.55;;;11.90;90.70;;;;;;5093791;28;20247;-68
2023/05/19 05:25:43;;;;;;;8.23;6.13;;;12.00;90.60;;;;;;5092954;28;20205;-68
2023/05/19 05:28:16;;;;;;;7.30;5.30;;;12.10;90.30;;;;;;5094027;28;20431;-68
2023/05/19 05:30:45;;;;;;;7.10;5.07;;;12.10;89.80;;;;;;5090065;28;20981;-68
2023/05/19 05:33:12;;;;;;;10.93;5.33;;;12.20;89.60;;;;;;5089608;28;20435;-68
2023/05/19 05:35:39;;;;;;;10.57;5.47;;;12.30;89.40;;;;;;5092066;28;20935;-68
2023/05/19 05:38:06;;;;;;;10.53;6.10;;;12.40;87.90;;;;;;5092773;28;20914;-68
2023/05/19 05:40:33;;;;;;;8.97;5.50;;;12.50;87.30;;;;;;5092300;28;20476;-68
2023/05/19 05:43:00;;;;;;;6.63;4.97;;;12.60;87.40;;;;;;5092242;28;20439;-68
2023/05/19 05:45:27;;;;;;;8.37;5.10;;;12.70;87.80;;;;;;5092738;28;20479;-69
2023/05/19 05:47:56;;;;;;;7.00;4.90;;;12.80;87.10;;;;;;5092476;28;20450;-68
2023/05/19 05:50:24;;;;;;;8.90;5.20;;;12.90;86.90;;;;;;5093243;28;20439;-68
2023/05/19 05:52:53;;;;;;;7.20;5.33;;;13.00;87.00;;;;;;5087073;28;20443;-68
2023/05/19 05:55:21;;;;;;;8.77;5.47;;;13.10;86.90;;;;;;5092641;28;20443;-69
2023/05/19 05:57:50;;;;;;;8.63;5.33;;;13.10;85.90;;;;;;5092696;28;20922;-68
2023/05/19 06:00:20;;;;;;;8.60;5.70;;;13.10;84.40;;;;;;5092845;28;20453;-68
2023/05/19 06:02:49;;;;;;;14.60;5.40;;;13.20;84.80;;;;;;5092632;28;20437;-68
2023/05/19 06:05:17;;;;;;;7.50;5.50;;;13.20;84.80;;;;;;5092683;28;20474;-69
2023/05/19 06:07:45;;;;;;;10.60;6.20;;;13.20;84.70;;;;;;5091941;28;20431;-68
2023/05/19 06:10:12;;;;;;;9.90;5.77;;;13.30;85.20;;;;;;5092138;28;20466;-68
2023/05/19 06:12:41;;;;;;;9.70;5.63;;;13.40;84.30;;;;;;5092342;28;20933;-69
2023/05/19 06:15:08;;;;;;;9.90;5.07;;;13.50;83.90;;;;;;5093209;28;20981;-68
2023/05/19 06:17:35;;;;;;;9.57;4.77;;;13.60;82.20;;;;;;5087326;28;20427;-68
2023/05/19 06:20:03;;;;;;;11.83;5.60;;;13.70;82.10;;;;;;5071592;28;20444;-69
2023/05/19 06:22:35;;;;;;;9.80;5.00;;;13.90;80.90;;;;;;5086387;28;20767;-69
2023/05/19 06:25:02;;;;;;;11.10;5.20;;;14.00;79.90;;;;;;5089935;28;20474;-69
2023/05/19 06:27:29;;;;;;;8.70;4.83;;;14.10;80.00;;;;;;5090141;28;20933;-69
2023/05/19 06:29:56;;;;;;;12.13;4.97;;;14.20;80.60;;;;;;5090179;28;20443;-69
2023/05/19 06:32:23;;;;;;;9.43;4.97;;;14.20;80.10;;;;;;5089527;28;20446;-68
2023/05/19 06:34:53;;;;;;;6.80;3.90;;;14.20;78.60;;;;;;5089155;28;20438;-69
2023/05/19 06:37:21;;;;;;;8.33;5.40;;;14.20;79.00;;;;;;5089374;28;20538;-69
2023/05/19 06:39:51;;;;;;;7.77;4.47;;;14.30;79.60;;;;;;5089237;28;20435;-69
2023/05/19 06:42:21;;;;;;;9.20;4.40;;;14.30;79.30;;;;;;5071900;28;20436;-69
2023/05/19 06:44:48;;;;;;;9.97;4.90;;;14.40;78.80;;;;;;5073204;28;20505;-69
2023/05/19 06:47:35;;;;;;;14.57;4.83;;;14.50;79.00;;;;;;5071983;28;20517;-68
2023/05/19 06:50:02;;;;;;;7.23;4.50;;;14.60;78.60;;;;;;5072236;28;20443;-69
2023/05/19 06:52:29;;;;;;;7.33;4.47;;;14.80;77.90;;;;;;5071853;28;20428;-68
2023/05/19 06:54:57;;;;;;;8.80;4.17;;;14.90;77.70;;;;;;5072845;28;20517;-69
2023/05/19 06:57:24;;;;;;;11.77;4.43;;;14.90;76.70;;;;;;5070899;28;20467;-68
2023/05/19 06:59:51;;;;;;;10.30;4.40;;;14.90;76.20;;;;;;5071229;28;20452;-69
2023/05/19 07:02:18;;;;;;;8.97;5.30;;;15.00;75.70;;;;;;5088466;28;20510;-69
2023/05/19 07:04:46;;;;;;;7.23;4.77;;;14.90;74.40;;;;;;5088210;28;20474;-69
2023/05/19 07:07:14;;;;;;;7.77;4.53;;;14.90;75.50;;;;;;5089457;28;20489;-69
2023/05/19 07:09:43;;;;;;;8.07;4.50;;;14.90;76.00;;;;;;5089426;28;20459;-68
2023/05/19 07:12:11;;;;;;;9.67;4.70;;;14.90;74.40;;;;;;5088917;28;20438;-68
2023/05/19 07:14:38;;;;;;;7.57;4.47;;;14.90;74.90;;;;;;5088951;28;20526;-68
2023/05/19 07:17:05;;;;;;;9.37;5.70;;;14.90;75.40;;;;;;5089475;28;20488;-69
2023/05/19 07:19:32;;;;;;;9.87;4.60;;;14.80;74.20;;;;;;5081452;28;21000;-68
2023/05/19 07:22:08;;;;;;;10.30;5.20;;;14.70;74.90;;;;;;5088416;28;20909;-69
2023/05/19 07:24:35;;;;;;;7.43;4.27;;;14.70;75.90;;;;;;5071012;28;20521;-69
2023/05/19 07:27:02;;;;;;;11.93;4.70;;;14.60;75.20;;;;;;5074275;28;20974;-69
2023/05/19 07:29:30;;;;;;;11.20;5.37;;;14.70;76.10;;;;;;5071967;28;20875;-69
2023/05/19 07:31:57;;;;;;;13.03;5.10;;;14.60;75.60;;;;;;5081154;28;20439;-68
2023/05/19 07:34:24;;;;;;;10.33;4.67;;;14.60;77.50;;;;;;5089206;28;20530;-69
2023/05/19 07:36:51;;;;;;;7.13;4.80;;;14.70;78.70;;;;;;5083443;28;20897;-68
2023/05/19 07:39:18;;;;;;;10.83;4.80;;;14.80;77.20;;;;;;5079228;28;20440;-69
2023/05/19 07:41:51;;;;;;;5.83;4.10;;;15.00;76.80;;;;;;5083396;28;20439;-69
2023/05/19 07:44:18;;;;;;;10.23;4.10;;;15.30;76.70;;;;;;5081100;28;20445;-68
2023/05/19 07:46:46;;;;;;;11.80;5.33;;;15.70;74.10;;;;;;5081642;28;20514;-69
2023/05/19 07:49:13;;;;;;;9.37;5.33;;;15.90;73.50;;;;;;5082495;28;20833;-69
2023/05/19 07:51:41;;;;;;;5.13;4.03;;;16.00;72.30;;;;;;5082920;28;20447;-68
2023/05/19 07:54:08;;;;;;;11.23;4.77;;;15.90;70.60;;;;;;5081553;28;20439;-69
2023/05/19 07:56:35;;;;;;;8.90;4.90;;;15.80;71.40;;;;;;5078937;28;21078;-68
2023/05/19 07:59:06;;;;;;;8.63;4.50;;;15.70;70.90;;;;;;5084587;28;20435;-68
2023/05/19 08:01:33;;;;;;;11.33;4.10;;;15.60;71.80;;;;;;5081632;28;20460;-69
2023/05/19 08:04:02;;;;;;;7.17;4.50;;;15.70;73.20;;;;;;5081487;28;20945;-68
2023/05/19 08:06:30;;;;;;;9.40;5.20;;;15.80;72.10;;;;;;5084961;28;20826;-69
2023/05/19 08:08:57;;;;;;;7.37;4.30;;;15.90;72.10;;;;;;5083515;28;20439;-68
2023/05/19 08:11:25;;;;;;;8.97;4.87;;;15.90;71.50;;;;;;5082681;28;20444;-68
2023/05/19 08:13:52;;;;;;;6.17;3.83;;;15.90;70.60;;;;;;5086245;28;20444;-68
2023/05/19 08:16:19;;;;;;;7.90;4.30;;;15.90;69.60;;;;;;5083010;28;20546;-69
2023/05/19 08:18:46;;;;;;;6.87;4.67;;;15.90;70.90;;;;;;5088436;28;20446;-68
2023/05/19 08:21:15;;;;;;;6.80;3.80;;;16.00;71.30;;;;;;5085210;28;20451;-69
2023/05/19 08:23:42;;;;;;;9.10;3.97;;;16.10;71.60;;;;;;5085570;28;20906;-69
2023/05/19 08:26:09;;;;;;;8.10;4.70;;;16.40;71.70;;;;;;5089402;28;20483;-69
2023/05/19 08:28:36;;;;;;;7.53;3.97;;;16.70;69.30;;;;;;5086280;28;20464;-69
2023/05/19 08:31:03;;;;;;;6.67;4.10;;;16.90;68.80;;;;;;5086928;28;20789;-69
2023/05/19 08:33:31;;;;;;;7.63;4.20;;;17.10;69.60;;;;;;5084808;28;20514;-69
2023/05/19 08:35:58;;;;;;;6.07;3.60;;;17.20;67.30;;;;;;5092081;28;20525;-69
2023/05/19 08:38:26;;;;;;;9.60;4.03;;;17.30;66.40;;;;;;5076643;28;20543;-69
2023/05/19 08:40:54;;;;;;;7.43;4.47;;;17.40;66.20;;;;;;5074813;28;20728;-68
2023/05/19 08:43:21;;;;;;;5.50;3.73;;;17.30;65.50;;;;;;5086707;28;20790;-69
2023/05/19 08:45:48;;;;;;;7.97;3.00;;;17.10;65.20;;;;;;5078399;28;20539;-69
2023/05/19 08:48:18;;;;;;;6.57;3.93;;;17.00;65.40;;;;;;5080113;28;20432;-69
2023/05/19 08:50:56;;;;;;;7.87;3.63;;;16.80;66.00;;;;;;5079762;28;20439;-69
2023/05/19 08:53:32;;;;;;;5.33;2.50;;;16.70;65.90;;;;;;5092175;28;20472;-69
2023/05/19 08:56:08;;;;;;;7.43;4.03;;;16.70;67.20;;;;;;5074547;28;20427;-69
2023/05/19 08:58:37;;;;;;;5.83;3.53;;;16.70;66.60;;;;;;5090335;28;20423;-69
2023/05/19 09:01:05;;;;;;;5.70;3.10;;;16.80;67.20;;;;;;5075534;28;20436;-69
2023/05/19 09:03:36;;;;;;;4.90;2.97;;;16.80;67.10;;;;;;5073857;28;20522;-69
2023/05/19 09:06:05;;;;;;;6.07;3.80;;;16.90;67.10;;;;;;5073817;28;20471;-69
2023/05/19 09:08:34;;;;;;;7.60;5.63;;;16.80;65.70;;;;;;5074195;28;20460;-69
2023/05/19 09:11:05;;;;;;;13.10;3.70;;;16.70;66.10;;;;;;5073890;28;20440;-69
2023/05/19 09:13:32;;;;;;;4.60;3.27;;;16.60;67.50;;;;;;5073687;28;20468;-69
2023/05/19 09:16:00;;;;;;;8.63;3.00;;;16.60;67.10;;;;;;5072608;28;20513;-69
2023/05/19 09:18:30;;;;;;;5.67;3.07;;;16.60;68.50;;;;;;5073303;28;20447;-69
2023/05/19 09:21:01;;;;;;;5.73;3.37;;;16.80;68.50;;;;;;5073601;28;20557;-69
2023/05/19 09:23:29;;;;;;;10.53;3.90;;;16.80;68.10;;;;;;5073235;28;20584;-69
2023/05/19 09:25:58;;;;;;;5.87;2.80;;;16.80;67.10;;;;;;5090702;28;20474;-69
2023/05/19 09:28:26;;;;;;;6.20;2.80;;;16.70;67.70;;;;;;5091157;28;20922;-69
2023/05/19 09:31:04;;;;;;;7.97;3.03;;;16.60;68.60;;;;;;5091118;28;20484;-68
2023/05/19 09:33:33;;;;;;;5.43;2.93;;;16.50;69.30;;;;;;5073311;28;20474;-68
2023/05/19 09:36:00;;;;;;;5.27;2.93;;;16.50;68.90;;;;;;5073291;28;20455;-69
2023/05/19 09:38:28;;;;;;;5.83;3.10;;;16.50;68.70;;;;;;5073250;28;20456;-69
2023/05/19 09:40:58;;;;;;;4.60;2.40;;;16.50;69.70;;;;;;5073332;28;20440;-69
2023/05/19 09:43:27;;;;;;;6.70;3.00;;;16.50;68.80;;;;;;5073166;28;20527;-69
2023/05/19 09:45:56;;;;;;;3.30;2.53;;;16.50;68.80;;;;;;5075609;28;20486;-69
2023/05/19 09:48:23;;;;;;;5.97;2.90;;;16.50;68.30;;;;;;5091309;28;20439;-69
2023/05/19 09:50:50;;;;;;;4.70;3.27;;;16.50;68.30;;;;;;5090466;28;20462;-69
2023/05/19 09:53:17;;;;;;;4.70;2.80;;;16.60;68.30;;;;;;5091096;28;20427;-69
2023/05/19 09:55:45;;;;;;;4.47;3.03;;;16.70;68.30;;;;;;5090936;28;20478;-69
2023/05/19 09:58:19;;;;;;;5.27;2.63;;;16.90;68.80;;;;;;5091070;28;20427;-69
2023/05/19 10:00:47;;;;;;;5.77;2.80;;;17.00;68.00;;;;;;5072938;28;20436;-69
2023/05/19 10:03:18;;;;;;;8.57;2.83;;;17.20;68.20;;;;;;5072895;28;20464;-69
2023/05/19 10:05:46;;;;;;;6.43;2.83;;;17.30;66.70;;;;;;5072782;28;20428;-69
2023/05/19 10:12:23;;;;;;;4.13;3.20;;;17.70;67.90;;;;;;5036226;28;20453;-69
2023/05/19 10:18:55;;;;;;;5.97;2.90;;;18.70;61.20;;;;;;5090261;28;20497;-69
2023/05/19 10:21:22;;;;;;;3.60;2.30;;;19.30;60.40;;;;;;5089996;28;20431;-69
2023/05/19 10:23:49;;;;;;;4.83;2.80;;;19.70;59.50;;;;;;5090517;28;20463;-69
2023/05/19 10:26:16;;;;;;;3.80;2.13;;;20.10;59.90;;;;;;5090667;28;20549;-69
2023/05/19 10:28:45;;;;;;;4.63;2.37;;;20.40;58.30;;;;;;5090615;28;20431;-69
2023/05/19 10:31:19;;;;;;;4.73;2.77;;;20.60;57.40;;;;;;5072333;28;20444;-67
2023/05/19 10:34:05;;;;;;;4.77;2.43;;;20.70;56.60;;;;;;5072569;28;20838;-67
2023/05/19 10:36:45;;;;;;;4.30;2.63;;;20.70;53.70;;;;;;5072441;28;20428;-66
2023/05/19 10:39:18;;;;;;;5.40;2.43;;;20.40;54.90;;;;;;5072259;28;20442;-69
2023/05/19 10:41:59;;;;;;;5.30;2.93;;;20.20;55.40;;;;;;5072711;28;20462;-69
2023/05/19 10:44:40;;;;;;;4.60;2.27;;;20.00;55.60;;;;;;5073943;28;20553;-69
2023/05/19 10:47:10;;;;;;;5.03;2.97;;;20.10;56.60;;;;;;5085413;28;20483;-69
2023/05/19 10:49:38;;;;;;;4.83;2.17;;;20.20;55.90;;;;;;5084097;28;20435;-69
2023/05/19 10:52:20;;;;;;;4.20;2.80;;;20.10;54.90;;;;;;5089302;28;20492;-69
2023/05/19 10:54:47;;;;;;;3.87;2.20;;;19.90;56.30;;;;;;5088593;28;20518;-69
2023/05/19 10:57:16;;;;;;;4.90;2.53;;;19.70;55.60;;;;;;5084861;28;20964;-69
2023/05/19 10:59:44;;;;;;;3.30;2.57;;;19.60;56.80;;;;;;5071348;28;20458;-69
2023/05/19 11:02:40;;;;;;;7.90;2.70;;;19.50;56.80;;;;;;5089117;28;20429;-68
2023/05/19 11:05:13;;;;;;;4.63;2.40;;;19.40;57.60;;;;;;5085933;28;20548;-69
2023/05/19 11:07:46;;;;;;;4.40;2.50;;;19.30;58.00;;;;;;5076974;28;20521;-69
2023/05/19 11:10:13;;;;;;;4.83;2.43;;;19.20;57.60;;;;;;5089100;28;20503;-69
2023/05/19 11:12:42;;;;;;;4.80;2.20;;;19.30;58.10;;;;;;5077196;28;20933;-69
2023/05/19 11:15:12;;;;;;;3.60;2.40;;;19.30;58.00;;;;;;5086844;28;20435;-69
2023/05/19 11:21:04;;;;;;;7.60;3.20;;;19.20;58.00;;;;;;5063122;28;20444;-69
2023/05/19 11:23:37;;;;;;;5.17;2.50;;;19.10;57.30;;;;;;5073512;28;20987;-69
2023/05/19 11:26:06;;;;;;;4.93;3.23;;;18.90;56.50;;;;;;5081625;28;20470;-69
2023/05/19 11:28:33;;;;;;;4.83;2.50;;;18.80;58.00;;;;;;5080019;28;20834;-69
2023/05/19 11:31:01;;;;;;;4.47;2.53;;;18.80;57.30;;;;;;5088871;28;20440;-69
2023/05/19 11:33:29;;;;;;;6.83;4.07;;;18.70;57.00;;;;;;5088506;28;20419;-69
2023/05/19 11:35:57;;;;;;;4.03;3.10;;;18.60;58.20;;;;;;5088806;28;20469;-69
2023/05/19 11:38:24;;;;;;;5.00;3.20;;;18.60;57.50;;;;;;5084131;28;20446;-69
2023/05/19 11:40:54;;;;;;;4.80;3.13;;;18.60;58.70;;;;;;5092280;28;20762;-69
2023/05/19 11:43:23;;;;;;;5.27;2.50;;;18.50;58.90;;;;;;5074861;28;20490;-69
2023/05/19 11:45:53;;;;;;;3.77;2.73;;;18.50;58.80;;;;;;5075281;28;20456;-69
2023/05/19 11:48:21;;;;;;;3.90;3.17;;;18.40;59.40;;;;;;5092619;28;20579;-69
2023/05/19 11:50:50;;;;;;;4.73;2.97;;;18.40;58.10;;;;;;5092268;28;20434;-69
2023/05/19 11:53:19;;;;;;;4.80;2.87;;;18.30;58.90;;;;;;5090578;28;20481;-69
2023/05/19 11:55:47;;;;;;;4.53;2.67;;;18.30;58.60;;;;;;5092236;28;20443;-69
2023/05/19 11:58:15;;;;;;;3.63;2.90;;;18.30;59.80;;;;;;5092368;28;20431;-69
2023/05/19 12:00:46;;;;;;;6.80;3.40;;;18.40;59.20;;;;;;5078838;28;20928;-69
2023/05/19 12:03:13;;;;;;;3.90;2.83;;;18.50;58.50;;;;;;5091543;28;20429;-69
2023/05/19 12:05:42;;;;;;;4.40;3.03;;;18.80;59.00;;;;;;5088800;28;20476;-69
2023/05/19 12:08:11;;;;;;;4.70;2.90;;;19.00;59.90;;;;;;5074288;28;20537;-69
2023/05/19 12:10:39;;;;;;;4.83;2.97;;;19.40;59.10;;;;;;5085134;28;20467;-69
2023/05/19 12:13:07;;;;;;;5.50;2.60;;;19.60;57.10;;;;;;5080907;28;20484;-69
2023/05/19 12:15:39;;;;;;;5.27;3.13;;;19.80;58.00;;;;;;5074621;28;20471;-69
2023/05/19 12:18:07;;;;;;;4.70;2.83;;;20.00;56.10;;;;;;5076356;28;20478;-69
2023/05/19 12:20:35;;;;;;;6.90;2.87;;;20.10;55.80;;;;;;5091371;28;20445;-69
2023/05/19 12:23:02;;;;;;;6.80;3.13;;;20.30;56.80;;;;;;5091767;28;20489;-69
2023/05/19 12:25:31;;;;;;;6.20;2.67;;;20.50;55.00;;;;;;5074118;28;20436;-69
2023/05/19 12:27:59;;;;;;;4.80;2.80;;;20.50;56.20;;;;;;5073300;28;20568;-69
2023/05/19 12:30:28;;;;;;;4.30;2.90;;;20.60;55.20;;;;;;5073947;28;20424;-69
2023/05/19 12:32:56;;;;;;;9.27;3.33;;;20.60;54.90;;;;;;5073738;28;20424;-69
2023/05/19 12:35:27;;;;;;;5.80;3.40;;;20.70;55.20;;;;;;5073840;28;20435;-69
2023/05/19 12:38:02;;;;;;;4.13;2.90;;;20.90;54.60;;;;;;5073834;28;20436;-69
2023/05/19 12:40:31;;;;;;;5.30;2.90;;;20.90;54.00;;;;;;5091830;28;20518;-69
2023/05/19 12:42:58;;;;;;;8.80;2.63;;;20.90;54.40;;;;;;5092088;28;20458;-68
2023/05/19 12:45:26;;;;;;;4.70;3.03;;;21.00;54.50;;;;;;5092063;28;20439;-69
2023/05/19 12:47:53;;;;;;;4.90;3.23;;;21.00;54.10;;;;;;5091178;28;20475;-70
2023/05/19 12:50:20;;;;;;;5.63;3.27;;;20.90;54.10;;;;;;5090893;28;20546;-69
2023/05/19 12:52:50;;;;;;;7.23;3.50;;;20.90;53.20;;;;;;5091251;28;20452;-69
2023/05/19 12:55:19;;;;;;;4.00;2.73;;;20.80;53.80;;;;;;5091710;28;20427;-69
2023/05/19 12:57:49;;;;;;;6.30;3.33;;;20.60;53.00;;;;;;5073674;28;20474;-69
2023/05/19 13:00:19;;;;;;;9.60;4.10;;;20.40;53.60;;;;;;5073575;28;20518;-69
2023/05/19 13:03:00;;;;;;;8.23;4.60;;;20.20;54.00;;;;;;5069269;28;20523;-69
2023/05/19 13:05:28;;;;;;;6.00;3.60;;;20.00;53.90;;;;;;5073598;28;20901;-69
2023/05/19 13:08:00;;;;;;;4.77;3.60;;;19.70;54.50;;;;;;5072980;28;20977;-69